sensor_id;sensor_type;location;lat;lon;timestamp;P1;durP1;ratioP1;P2;durP2;ratioP2
9745;SDS011;4912;50.836;12.958;2023-12-20T00:02:26;6.18;;;3.92;;
9745;SDS011;4912;50.836;12.958;2023-12-20T00:04:59;5.38;;;3.50;;
9745;SDS011;4912;50.836;12.958;2023-12-20T00:07:30;5.10;;;3.25;;
9745;SDS011;4912;50.836;12.958;2023-12-20T00:10:03;5.90;;;3.78;;
9745;SDS011;4912;50.836;12.958;2023-12-20T00:12:34;5.55;;;3.33;;
9745;SDS011;4912;50.836;12.958;2023-12-20T00:15:06;5.65;;;3.47;;
9745;SDS011;4912;50.836;12.958;2023-12-20T00:17:38;5.50;;;3.75;;
9745;SDS011;4912;50.836;12.958;2023-12-20T00:22:43;6.03;;;3.55;;
9745;SDS011;4912;50.836;12.958;2023-12-20T00:25:14;4.55;;;2.97;;
9745;SDS011;4912;50.836;12.958;2023-12-20T00:27:45;5.07;;;3.42;;
9745;SDS011;4912;50.836;12.958;2023-12-20T00:30:16;6.28;;;3.15;;
9745;SDS011;4912;50.836;12.958;2023-12-20T00:33:01;5.30;;;3.22;;
9745;SDS011;4912;50.836;12.958;2023-12-20T00:35:38;4.18;;;2.70;;
9745;SDS011;4912;50.836;12.958;2023-12-20T00:38:08;4.53;;;2.92;;
9745;SDS011;4912;50.836;12.958;2023-12-20T00:40:39;4.25;;;2.88;;
9745;SDS011;4912;50.836;12.958;2023-12-20T00:43:10;4.68;;;3.03;;
9745;SDS011;4912;50.836;12.958;2023-12-20T00:45:42;4.50;;;2.90;;
9745;SDS011;4912;50.836;12.958;2023-12-20T00:48:12;4.68;;;2.90;;
9745;SDS011;4912;50.836;12.958;2023-12-20T00:50:46;5.03;;;2.92;;
9745;SDS011;4912;50.836;12.958;2023-12-20T00:53:17;4.20;;;2.95;;
9745;SDS011;4912;50.836;12.958;2023-12-20T00:55:51;3.83;;;2.40;;
9745;SDS011;4912;50.836;12.958;2023-12-20T00:58:22;3.78;;;2.53;;
9745;SDS011;4912;50.836;12.958;2023-12-20T01:00:53;3.25;;;2.10;;
9745;SDS011;4912;50.836;12.958;2023-12-20T01:03:25;5.32;;;2.78;;
9745;SDS011;4912;50.836;12.958;2023-12-20T01:05:59;3.60;;;2.03;;
9745;SDS011;4912;50.836;12.958;2023-12-20T01:08:31;4.00;;;2.30;;
9745;SDS011;4912;50.836;12.958;2023-12-20T01:11:03;4.70;;;2.25;;
9745;SDS011;4912;50.836;12.958;2023-12-20T01:13:34;3.75;;;2.35;;
9745;SDS011;4912;50.836;12.958;2023-12-20T01:16:06;3.65;;;2.05;;
9745;SDS011;4912;50.836;12.958;2023-12-20T01:18:37;5.05;;;2.13;;
9745;SDS011;4912;50.836;12.958;2023-12-20T01:21:11;2.85;;;1.70;;
9745;SDS011;4912;50.836;12.958;2023-12-20T01:23:42;3.10;;;1.88;;
9745;SDS011;4912;50.836;12.958;2023-12-20T01:26:13;4.15;;;2.10;;
9745;SDS011;4912;50.836;12.958;2023-12-20T01:28:45;4.28;;;2.08;;
9745;SDS011;4912;50.836;12.958;2023-12-20T01:31:15;3.13;;;1.90;;
9745;SDS011;4912;50.836;12.958;2023-12-20T01:33:47;3.20;;;1.90;;
9745;SDS011;4912;50.836;12.958;2023-12-20T01:36:21;3.00;;;1.92;;
9745;SDS011;4912;50.836;12.958;2023-12-20T01:38:52;3.08;;;1.63;;
9745;SDS011;4912;50.836;12.958;2023-12-20T01:41:23;2.80;;;1.63;;
9745;SDS011;4912;50.836;12.958;2023-12-20T01:43:54;2.60;;;1.60;;
9745;SDS011;4912;50.836;12.958;2023-12-20T01:46:25;2.65;;;1.40;;
9745;SDS011;4912;50.836;12.958;2023-12-20T01:48:56;2.40;;;1.50;;
9745;SDS011;4912;50.836;12.958;2023-12-20T01:51:30;2.47;;;1.40;;
9745;SDS011;4912;50.836;12.958;2023-12-20T01:54:02;2.00;;;1.48;;
9745;SDS011;4912;50.836;12.958;2023-12-20T01:56:33;2.08;;;1.20;;
9745;SDS011;4912;50.836;12.958;2023-12-20T01:59:05;1.70;;;1.10;;
9745;SDS011;4912;50.836;12.958;2023-12-20T02:01:37;2.10;;;1.30;;
9745;SDS011;4912;50.836;12.958;2023-12-20T02:04:08;2.10;;;1.25;;
9745;SDS011;4912;50.836;12.958;2023-12-20T02:06:42;1.92;;;1.15;;
9745;SDS011;4912;50.836;12.958;2023-12-20T02:09:16;2.00;;;1.10;;
9745;SDS011;4912;50.836;12.958;2023-12-20T02:11:47;1.80;;;1.13;;
9745;SDS011;4912;50.836;12.958;2023-12-20T02:14:19;2.30;;;1.30;;
9745;SDS011;4912;50.836;12.958;2023-12-20T02:16:50;1.95;;;1.20;;
9745;SDS011;4912;50.836;12.958;2023-12-20T02:19:21;3.75;;;1.20;;
9745;SDS011;4912;50.836;12.958;2023-12-20T02:22:07;2.78;;;1.20;;
9745;SDS011;4912;50.836;12.958;2023-12-20T02:24:41;1.77;;;1.10;;
9745;SDS011;4912;50.836;12.958;2023-12-20T02:27:12;2.38;;;1.10;;
9745;SDS011;4912;50.836;12.958;2023-12-20T02:29:45;2.58;;;1.00;;
9745;SDS011;4912;50.836;12.958;2023-12-20T02:32:18;2.47;;;1.20;;
9745;SDS011;4912;50.836;12.958;2023-12-20T02:34:49;2.53;;;1.10;;
9745;SDS011;4912;50.836;12.958;2023-12-20T02:37:23;2.08;;;1.20;;
9745;SDS011;4912;50.836;12.958;2023-12-20T02:39:54;2.75;;;1.30;;
9745;SDS011;4912;50.836;12.958;2023-12-20T02:42:37;1.75;;;1.10;;
9745;SDS011;4912;50.836;12.958;2023-12-20T02:45:10;1.20;;;0.90;;
9745;SDS011;4912;50.836;12.958;2023-12-20T02:47:41;1.90;;;1.20;;
9745;SDS011;4912;50.836;12.958;2023-12-20T02:52:46;1.63;;;0.98;;
9745;SDS011;4912;50.836;12.958;2023-12-20T02:55:17;1.38;;;1.02;;
9745;SDS011;4912;50.836;12.958;2023-12-20T02:57:48;1.80;;;1.00;;
9745;SDS011;4912;50.836;12.958;2023-12-20T03:00:19;1.50;;;1.05;;
9745;SDS011;4912;50.836;12.958;2023-12-20T03:02:50;3.00;;;1.30;;
9745;SDS011;4912;50.836;12.958;2023-12-20T03:05:21;1.42;;;1.00;;
9745;SDS011;4912;50.836;12.958;2023-12-20T03:07:54;1.90;;;1.00;;
9745;SDS011;4912;50.836;12.958;2023-12-20T03:10:25;1.90;;;1.10;;
9745;SDS011;4912;50.836;12.958;2023-12-20T03:12:56;1.90;;;1.20;;
9745;SDS011;4912;50.836;12.958;2023-12-20T03:15:27;1.70;;;0.98;;
9745;SDS011;4912;50.836;12.958;2023-12-20T03:17:58;3.50;;;1.80;;
9745;SDS011;4912;50.836;12.958;2023-12-20T03:23:04;1.52;;;1.00;;
9745;SDS011;4912;50.836;12.958;2023-12-20T03:25:34;2.00;;;1.08;;
9745;SDS011;4912;50.836;12.958;2023-12-20T03:28:05;1.27;;;0.85;;
9745;SDS011;4912;50.836;12.958;2023-12-20T03:30:36;1.52;;;1.00;;
9745;SDS011;4912;50.836;12.958;2023-12-20T03:33:07;2.88;;;1.00;;
9745;SDS011;4912;50.836;12.958;2023-12-20T03:35:38;1.63;;;1.10;;
9745;SDS011;4912;50.836;12.958;2023-12-20T03:38:12;1.73;;;1.10;;
9745;SDS011;4912;50.836;12.958;2023-12-20T03:40:43;2.33;;;1.30;;
9745;SDS011;4912;50.836;12.958;2023-12-20T03:43:14;1.60;;;1.00;;
9745;SDS011;4912;50.836;12.958;2023-12-20T03:45:44;1.40;;;0.95;;
9745;SDS011;4912;50.836;12.958;2023-12-20T03:48:15;1.80;;;1.05;;
9745;SDS011;4912;50.836;12.958;2023-12-20T03:50:47;1.85;;;1.10;;
9745;SDS011;4912;50.836;12.958;2023-12-20T03:53:20;1.80;;;1.00;;
9745;SDS011;4912;50.836;12.958;2023-12-20T03:55:51;1.52;;;1.02;;
9745;SDS011;4912;50.836;12.958;2023-12-20T03:58:22;1.67;;;1.10;;
9745;SDS011;4912;50.836;12.958;2023-12-20T04:00:53;1.58;;;1.00;;
9745;SDS011;4912;50.836;12.958;2023-12-20T04:03:24;1.48;;;1.05;;
9745;SDS011;4912;50.836;12.958;2023-12-20T04:05:57;2.50;;;1.40;;
9745;SDS011;4912;50.836;12.958;2023-12-20T04:08:31;1.50;;;1.10;;
9745;SDS011;4912;50.836;12.958;2023-12-20T04:11:02;1.60;;;1.10;;
9745;SDS011;4912;50.836;12.958;2023-12-20T04:13:33;2.00;;;1.10;;
9745;SDS011;4912;50.836;12.958;2023-12-20T04:16:04;1.33;;;0.98;;
9745;SDS011;4912;50.836;12.958;2023-12-20T04:18:35;1.42;;;0.90;;
9745;SDS011;4912;50.836;12.958;2023-12-20T04:21:07;1.70;;;1.10;;
9745;SDS011;4912;50.836;12.958;2023-12-20T04:23:40;1.42;;;0.90;;
9745;SDS011;4912;50.836;12.958;2023-12-20T04:26:11;1.42;;;0.98;;
9745;SDS011;4912;50.836;12.958;2023-12-20T04:28:42;1.40;;;1.08;;
9745;SDS011;4912;50.836;12.958;2023-12-20T04:31:13;4.75;;;2.15;;
9745;SDS011;4912;50.836;12.958;2023-12-20T04:36:15;1.70;;;1.05;;
9745;SDS011;4912;50.836;12.958;2023-12-20T04:38:48;1.60;;;1.10;;
9745;SDS011;4912;50.836;12.958;2023-12-20T04:41:19;1.08;;;0.70;;
9745;SDS011;4912;50.836;12.958;2023-12-20T04:43:50;2.63;;;1.17;;
9745;SDS011;4912;50.836;12.958;2023-12-20T04:46:21;3.28;;;1.90;;
9745;SDS011;4912;50.836;12.958;2023-12-20T04:48:52;2.15;;;1.40;;
9745;SDS011;4912;50.836;12.958;2023-12-20T04:51:23;2.85;;;1.10;;
9745;SDS011;4912;50.836;12.958;2023-12-20T04:53:57;2.50;;;1.05;;
9745;SDS011;4912;50.836;12.958;2023-12-20T04:56:28;1.40;;;1.00;;
9745;SDS011;4912;50.836;12.958;2023-12-20T04:58:58;1.85;;;1.20;;
9745;SDS011;4912;50.836;12.958;2023-12-20T05:01:29;2.50;;;1.20;;
9745;SDS011;4912;50.836;12.958;2023-12-20T05:04:00;2.20;;;1.20;;
9745;SDS011;4912;50.836;12.958;2023-12-20T05:06:31;1.70;;;1.08;;
9745;SDS011;4912;50.836;12.958;2023-12-20T05:09:05;1.52;;;1.00;;
9745;SDS011;4912;50.836;12.958;2023-12-20T05:11:36;1.58;;;1.00;;
9745;SDS011;4912;50.836;12.958;2023-12-20T05:14:07;2.25;;;1.25;;
9745;SDS011;4912;50.836;12.958;2023-12-20T05:16:38;3.00;;;1.50;;
9745;SDS011;4912;50.836;12.958;2023-12-20T05:19:09;2.05;;;1.08;;
9745;SDS011;4912;50.836;12.958;2023-12-20T05:21:41;2.47;;;1.27;;
9745;SDS011;4912;50.836;12.958;2023-12-20T05:24:14;2.35;;;1.17;;
9745;SDS011;4912;50.836;12.958;2023-12-20T05:26:45;3.33;;;1.33;;
9745;SDS011;4912;50.836;12.958;2023-12-20T05:29:19;1.88;;;1.02;;
9745;SDS011;4912;50.836;12.958;2023-12-20T05:31:50;1.67;;;1.00;;
9745;SDS011;4912;50.836;12.958;2023-12-20T05:34:21;1.65;;;1.10;;
9745;SDS011;4912;50.836;12.958;2023-12-20T05:36:52;1.73;;;0.90;;
9745;SDS011;4912;50.836;12.958;2023-12-20T05:39:26;2.78;;;1.20;;
9745;SDS011;4912;50.836;12.958;2023-12-20T05:41:58;1.70;;;1.13;;
9745;SDS011;4912;50.836;12.958;2023-12-20T05:44:28;1.95;;;1.20;;
9745;SDS011;4912;50.836;12.958;2023-12-20T05:49:30;1.52;;;1.00;;
9745;SDS011;4912;50.836;12.958;2023-12-20T05:54:35;2.77;;;1.30;;
9745;SDS011;4912;50.836;12.958;2023-12-20T05:57:06;2.13;;;1.48;;
9745;SDS011;4912;50.836;12.958;2023-12-20T05:59:37;1.48;;;1.08;;
9745;SDS011;4912;50.836;12.958;2023-12-20T06:02:08;3.15;;;1.20;;
9745;SDS011;4912;50.836;12.958;2023-12-20T06:04:41;2.08;;;1.25;;
9745;SDS011;4912;50.836;12.958;2023-12-20T06:07:12;2.58;;;1.50;;
9745;SDS011;4912;50.836;12.958;2023-12-20T06:09:46;4.40;;;1.45;;
9745;SDS011;4912;50.836;12.958;2023-12-20T06:12:17;3.03;;;1.70;;
9745;SDS011;4912;50.836;12.958;2023-12-20T06:14:48;3.03;;;1.40;;
9745;SDS011;4912;50.836;12.958;2023-12-20T06:17:19;2.70;;;1.55;;
9745;SDS011;4912;50.836;12.958;2023-12-20T06:19:50;3.53;;;1.80;;
9745;SDS011;4912;50.836;12.958;2023-12-20T06:22:21;4.47;;;2.20;;
9745;SDS011;4912;50.836;12.958;2023-12-20T06:24:55;4.82;;;1.80;;
9745;SDS011;4912;50.836;12.958;2023-12-20T06:27:26;3.92;;;1.60;;
9745;SDS011;4912;50.836;12.958;2023-12-20T06:29:59;2.80;;;2.00;;
9745;SDS011;4912;50.836;12.958;2023-12-20T06:32:30;2.75;;;1.90;;
9745;SDS011;4912;50.836;12.958;2023-12-20T06:35:01;3.63;;;2.05;;
9745;SDS011;4912;50.836;12.958;2023-12-20T06:37:33;3.50;;;1.63;;
9745;SDS011;4912;50.836;12.958;2023-12-20T06:40:07;5.13;;;2.22;;
9745;SDS011;4912;50.836;12.958;2023-12-20T06:42:44;3.13;;;1.77;;
9745;SDS011;4912;50.836;12.958;2023-12-20T06:45:30;2.90;;;1.92;;
9745;SDS011;4912;50.836;12.958;2023-12-20T06:48:01;4.63;;;2.13;;
9745;SDS011;4912;50.836;12.958;2023-12-20T06:50:33;3.53;;;1.73;;
9745;SDS011;4912;50.836;12.958;2023-12-20T06:53:06;3.95;;;2.10;;
9745;SDS011;4912;50.836;12.958;2023-12-20T06:55:40;4.13;;;2.35;;
9745;SDS011;4912;50.836;12.958;2023-12-20T06:58:11;3.42;;;2.03;;
9745;SDS011;4912;50.836;12.958;2023-12-20T07:00:43;3.97;;;2.10;;
9745;SDS011;4912;50.836;12.958;2023-12-20T07:03:14;3.90;;;2.25;;
9745;SDS011;4912;50.836;12.958;2023-12-20T07:05:45;3.72;;;1.95;;
9745;SDS011;4912;50.836;12.958;2023-12-20T07:08:16;4.22;;;2.15;;
9745;SDS011;4912;50.836;12.958;2023-12-20T07:10:50;4.13;;;1.98;;
9745;SDS011;4912;50.836;12.958;2023-12-20T07:13:21;3.72;;;2.00;;
9745;SDS011;4912;50.836;12.958;2023-12-20T07:15:52;4.20;;;2.22;;
9745;SDS011;4912;50.836;12.958;2023-12-20T07:18:23;6.47;;;2.22;;
9745;SDS011;4912;50.836;12.958;2023-12-20T07:23:25;3.95;;;2.08;;
9745;SDS011;4912;50.836;12.958;2023-12-20T07:25:58;3.45;;;2.13;;
9745;SDS011;4912;50.836;12.958;2023-12-20T07:28:29;4.93;;;2.05;;
9745;SDS011;4912;50.836;12.958;2023-12-20T07:31:00;5.78;;;2.60;;
9745;SDS011;4912;50.836;12.958;2023-12-20T07:33:31;5.22;;;1.90;;
9745;SDS011;4912;50.836;12.958;2023-12-20T07:36:06;5.55;;;2.08;;
9745;SDS011;4912;50.836;12.958;2023-12-20T07:38:37;3.05;;;2.10;;
9745;SDS011;4912;50.836;12.958;2023-12-20T07:41:11;4.82;;;1.85;;
9745;SDS011;4912;50.836;12.958;2023-12-20T07:43:42;3.63;;;2.05;;
9745;SDS011;4912;50.836;12.958;2023-12-20T07:46:13;5.18;;;2.03;;
9745;SDS011;4912;50.836;12.958;2023-12-20T07:48:45;3.67;;;2.15;;
9745;SDS011;4912;50.836;12.958;2023-12-20T07:51:16;3.97;;;1.85;;
9745;SDS011;4912;50.836;12.958;2023-12-20T07:53:48;5.18;;;2.00;;
9745;SDS011;4912;50.836;12.958;2023-12-20T07:56:22;2.80;;;1.88;;
9745;SDS011;4912;50.836;12.958;2023-12-20T07:58:52;5.22;;;2.30;;
9745;SDS011;4912;50.836;12.958;2023-12-20T08:01:26;4.28;;;2.13;;
9745;SDS011;4912;50.836;12.958;2023-12-20T08:03:57;6.07;;;2.53;;
9745;SDS011;4912;50.836;12.958;2023-12-20T08:06:28;8.52;;;2.58;;
9745;SDS011;4912;50.836;12.958;2023-12-20T08:08:59;4.18;;;2.22;;
9745;SDS011;4912;50.836;12.958;2023-12-20T08:11:35;4.57;;;2.50;;
9745;SDS011;4912;50.836;12.958;2023-12-20T08:14:06;4.78;;;1.88;;
9745;SDS011;4912;50.836;12.958;2023-12-20T08:16:37;3.70;;;1.95;;
9745;SDS011;4912;50.836;12.958;2023-12-20T08:19:08;5.72;;;2.70;;
9745;SDS011;4912;50.836;12.958;2023-12-20T08:21:39;6.00;;;2.80;;
9745;SDS011;4912;50.836;12.958;2023-12-20T08:24:10;3.33;;;1.85;;
9745;SDS011;4912;50.836;12.958;2023-12-20T08:26:44;3.40;;;2.30;;
9745;SDS011;4912;50.836;12.958;2023-12-20T08:29:15;5.63;;;2.58;;
9745;SDS011;4912;50.836;12.958;2023-12-20T08:31:43;5.28;;;2.70;;
9745;SDS011;4912;50.836;12.958;2023-12-20T08:34:14;3.60;;;2.10;;
9745;SDS011;4912;50.836;12.958;2023-12-20T08:36:45;3.85;;;1.77;;
9745;SDS011;4912;50.836;12.958;2023-12-20T08:39:16;3.45;;;2.08;;
9745;SDS011;4912;50.836;12.958;2023-12-20T08:41:50;5.10;;;2.28;;
9745;SDS011;4912;50.836;12.958;2023-12-20T08:44:21;3.28;;;1.80;;
9745;SDS011;4912;50.836;12.958;2023-12-20T08:46:52;3.60;;;2.03;;
9745;SDS011;4912;50.836;12.958;2023-12-20T08:49:24;3.15;;;2.03;;
9745;SDS011;4912;50.836;12.958;2023-12-20T08:51:55;4.03;;;2.08;;
9745;SDS011;4912;50.836;12.958;2023-12-20T08:54:26;3.22;;;2.13;;
9745;SDS011;4912;50.836;12.958;2023-12-20T08:57:00;7.55;;;2.58;;
9745;SDS011;4912;50.836;12.958;2023-12-20T08:59:33;3.65;;;2.63;;
9745;SDS011;4912;50.836;12.958;2023-12-20T09:02:04;3.20;;;2.15;;
9745;SDS011;4912;50.836;12.958;2023-12-20T09:07:07;4.13;;;2.45;;
9745;SDS011;4912;50.836;12.958;2023-12-20T09:09:52;4.80;;;2.50;;
9745;SDS011;4912;50.836;12.958;2023-12-20T09:12:26;4.15;;;2.10;;
9745;SDS011;4912;50.836;12.958;2023-12-20T09:14:57;5.30;;;1.98;;
9745;SDS011;4912;50.836;12.958;2023-12-20T09:17:29;3.95;;;2.03;;
9745;SDS011;4912;50.836;12.958;2023-12-20T09:20:00;4.53;;;2.10;;
9745;SDS011;4912;50.836;12.958;2023-12-20T09:22:34;3.65;;;2.03;;
9745;SDS011;4912;50.836;12.958;2023-12-20T09:27:39;3.35;;;1.60;;
9745;SDS011;4912;50.836;12.958;2023-12-20T09:30:11;2.55;;;1.50;;
9745;SDS011;4912;50.836;12.958;2023-12-20T09:32:53;3.60;;;1.75;;
9745;SDS011;4912;50.836;12.958;2023-12-20T09:35:24;6.35;;;2.92;;
9745;SDS011;4912;50.836;12.958;2023-12-20T09:37:55;4.32;;;1.40;;
9745;SDS011;4912;50.836;12.958;2023-12-20T09:43:02;3.65;;;1.60;;
9745;SDS011;4912;50.836;12.958;2023-12-20T09:45:34;4.82;;;1.70;;
9745;SDS011;4912;50.836;12.958;2023-12-20T09:48:07;4.20;;;1.90;;
9745;SDS011;4912;50.836;12.958;2023-12-20T09:50:42;5.05;;;1.90;;
9745;SDS011;4912;50.836;12.958;2023-12-20T09:53:19;6.40;;;1.80;;
9745;SDS011;4912;50.836;12.958;2023-12-20T09:55:57;4.15;;;2.00;;
9745;SDS011;4912;50.836;12.958;2023-12-20T09:58:32;5.18;;;2.25;;
9745;SDS011;4912;50.836;12.958;2023-12-20T10:01:06;4.03;;;1.60;;
9745;SDS011;4912;50.836;12.958;2023-12-20T10:03:38;3.63;;;2.00;;
9745;SDS011;4912;50.836;12.958;2023-12-20T10:06:11;4.40;;;2.28;;
9745;SDS011;4912;50.836;12.958;2023-12-20T10:08:43;4.65;;;2.47;;
9745;SDS011;4912;50.836;12.958;2023-12-20T10:11:14;4.78;;;2.00;;
9745;SDS011;4912;50.836;12.958;2023-12-20T10:13:49;6.20;;;2.45;;
9745;SDS011;4912;50.836;12.958;2023-12-20T10:16:23;5.38;;;2.40;;
9745;SDS011;4912;50.836;12.958;2023-12-20T10:18:55;4.78;;;2.47;;
9745;SDS011;4912;50.836;12.958;2023-12-20T10:21:26;3.85;;;1.98;;
9745;SDS011;4912;50.836;12.958;2023-12-20T10:23:58;4.88;;;2.28;;
9745;SDS011;4912;50.836;12.958;2023-12-20T10:26:29;6.28;;;2.80;;
9745;SDS011;4912;50.836;12.958;2023-12-20T10:29:02;8.77;;;2.22;;
9745;SDS011;4912;50.836;12.958;2023-12-20T10:31:35;5.60;;;2.13;;
9745;SDS011;4912;50.836;12.958;2023-12-20T10:34:06;5.72;;;2.42;;
9745;SDS011;4912;50.836;12.958;2023-12-20T10:36:37;4.03;;;2.10;;
9745;SDS011;4912;50.836;12.958;2023-12-20T10:39:08;3.30;;;1.75;;
9745;SDS011;4912;50.836;12.958;2023-12-20T10:41:41;4.53;;;2.00;;
9745;SDS011;4912;50.836;12.958;2023-12-20T10:44:16;3.40;;;1.73;;
9745;SDS011;4912;50.836;12.958;2023-12-20T10:46:47;7.85;;;2.35;;
9745;SDS011;4912;50.836;12.958;2023-12-20T10:49:24;4.85;;;1.70;;
9745;SDS011;4912;50.836;12.958;2023-12-20T10:51:57;6.15;;;1.73;;
9745;SDS011;4912;50.836;12.958;2023-12-20T10:54:32;5.35;;;1.90;;
9745;SDS011;4912;50.836;12.958;2023-12-20T10:57:04;4.00;;;1.70;;
9745;SDS011;4912;50.836;12.958;2023-12-20T10:59:39;4.07;;;1.98;;
9745;SDS011;4912;50.836;12.958;2023-12-20T11:02:13;3.72;;;1.80;;
9745;SDS011;4912;50.836;12.958;2023-12-20T11:04:44;3.75;;;1.90;;
9745;SDS011;4912;50.836;12.958;2023-12-20T11:07:25;5.93;;;2.00;;
9745;SDS011;4912;50.836;12.958;2023-12-20T11:10:09;3.28;;;1.83;;
9745;SDS011;4912;50.836;12.958;2023-12-20T11:12:46;6.63;;;1.90;;
9745;SDS011;4912;50.836;12.958;2023-12-20T11:15:25;4.72;;;1.70;;
9745;SDS011;4912;50.836;12.958;2023-12-20T11:17:57;8.00;;;1.90;;
9745;SDS011;4912;50.836;12.958;2023-12-20T11:20:35;6.50;;;1.77;;
9745;SDS011;4912;50.836;12.958;2023-12-20T11:23:10;3.45;;;1.70;;
9745;SDS011;4912;50.836;12.958;2023-12-20T11:28:20;5.20;;;1.70;;
9745;SDS011;4912;50.836;12.958;2023-12-20T11:30:56;7.10;;;1.70;;
9745;SDS011;4912;50.836;12.958;2023-12-20T11:33:29;4.57;;;1.90;;
9745;SDS011;4912;50.836;12.958;2023-12-20T11:36:02;7.28;;;2.25;;
9745;SDS011;4912;50.836;12.958;2023-12-20T11:38:36;6.55;;;2.53;;
9745;SDS011;4912;50.836;12.958;2023-12-20T11:41:07;6.40;;;1.90;;
9745;SDS011;4912;50.836;12.958;2023-12-20T11:43:39;6.03;;;2.00;;
9745;SDS011;4912;50.836;12.958;2023-12-20T11:46:13;6.85;;;2.20;;
9745;SDS011;4912;50.836;12.958;2023-12-20T11:48:44;5.03;;;2.05;;
9745;SDS011;4912;50.836;12.958;2023-12-20T11:51:16;6.47;;;2.47;;
9745;SDS011;4912;50.836;12.958;2023-12-20T11:53:50;4.35;;;1.77;;
9745;SDS011;4912;50.836;12.958;2023-12-20T11:56:22;4.93;;;1.70;;
9745;SDS011;4912;50.836;12.958;2023-12-20T12:01:41;5.97;;;2.20;;
9745;SDS011;4912;50.836;12.958;2023-12-20T12:06:50;5.47;;;1.47;;
9745;SDS011;4912;50.836;12.958;2023-12-20T12:09:21;6.03;;;1.83;;
9745;SDS011;4912;50.836;12.958;2023-12-20T12:11:52;5.82;;;1.90;;
9745;SDS011;4912;50.836;12.958;2023-12-20T12:16:57;5.97;;;1.80;;
9745;SDS011;4912;50.836;12.958;2023-12-20T12:19:29;6.45;;;2.50;;
9745;SDS011;4912;50.836;12.958;2023-12-20T12:22:06;6.13;;;2.00;;
9745;SDS011;4912;50.836;12.958;2023-12-20T12:24:42;6.35;;;1.80;;
9745;SDS011;4912;50.836;12.958;2023-12-20T12:27:15;5.60;;;1.50;;
9745;SDS011;4912;50.836;12.958;2023-12-20T12:29:59;5.55;;;1.70;;
9745;SDS011;4912;50.836;12.958;2023-12-20T12:32:37;4.47;;;1.75;;
9745;SDS011;4912;50.836;12.958;2023-12-20T12:35:10;5.88;;;1.75;;
9745;SDS011;4912;50.836;12.958;2023-12-20T12:37:41;4.55;;;1.95;;
9745;SDS011;4912;50.836;12.958;2023-12-20T12:42:44;9.98;;;1.90;;
9745;SDS011;4912;50.836;12.958;2023-12-20T12:45:16;7.10;;;1.77;;
9745;SDS011;4912;50.836;12.958;2023-12-20T12:47:51;6.63;;;2.45;;
9745;SDS011;4912;50.836;12.958;2023-12-20T12:50:22;9.93;;;2.50;;
9745;SDS011;4912;50.836;12.958;2023-12-20T12:52:56;8.73;;;2.05;;
9745;SDS011;4912;50.836;12.958;2023-12-20T12:55:27;5.13;;;1.85;;
9745;SDS011;4912;50.836;12.958;2023-12-20T12:57:59;5.82;;;1.67;;
9745;SDS011;4912;50.836;12.958;2023-12-20T13:00:30;4.00;;;1.40;;
9745;SDS011;4912;50.836;12.958;2023-12-20T13:03:05;4.28;;;1.85;;
9745;SDS011;4912;50.836;12.958;2023-12-20T13:05:37;7.32;;;1.60;;
9745;SDS011;4912;50.836;12.958;2023-12-20T13:08:21;5.63;;;1.40;;
9745;SDS011;4912;50.836;12.958;2023-12-20T13:11:01;8.27;;;2.00;;
9745;SDS011;4912;50.836;12.958;2023-12-20T13:13:37;4.72;;;1.40;;
9745;SDS011;4912;50.836;12.958;2023-12-20T13:16:14;4.65;;;1.50;;
9745;SDS011;4912;50.836;12.958;2023-12-20T13:18:48;5.32;;;1.58;;
9745;SDS011;4912;50.836;12.958;2023-12-20T13:21:23;3.72;;;1.40;;
9745;SDS011;4912;50.836;12.958;2023-12-20T13:23:59;5.95;;;1.98;;
9745;SDS011;4912;50.836;12.958;2023-12-20T13:26:47;5.60;;;1.40;;
9745;SDS011;4912;50.836;12.958;2023-12-20T13:29:18;6.72;;;1.90;;
9745;SDS011;4912;50.836;12.958;2023-12-20T13:31:54;5.03;;;2.00;;
9745;SDS011;4912;50.836;12.958;2023-12-20T13:34:28;10.30;;;2.88;;
9745;SDS011;4912;50.836;12.958;2023-12-20T13:37:06;4.47;;;2.25;;
9745;SDS011;4912;50.836;12.958;2023-12-20T13:39:45;3.85;;;1.40;;
9745;SDS011;4912;50.836;12.958;2023-12-20T13:42:20;3.90;;;1.40;;
9745;SDS011;4912;50.836;12.958;2023-12-20T13:44:57;2.88;;;1.30;;
9745;SDS011;4912;50.836;12.958;2023-12-20T13:47:31;3.78;;;1.33;;
9745;SDS011;4912;50.836;12.958;2023-12-20T13:50:07;5.18;;;1.67;;
9745;SDS011;4912;50.836;12.958;2023-12-20T13:52:42;5.97;;;1.45;;
9745;SDS011;4912;50.836;12.958;2023-12-20T13:55:34;5.65;;;1.70;;
9745;SDS011;4912;50.836;12.958;2023-12-20T13:59:18;4.30;;;1.50;;
9745;SDS011;4912;50.836;12.958;2023-12-20T14:01:53;5.82;;;1.60;;
9745;SDS011;4912;50.836;12.958;2023-12-20T14:04:24;5.30;;;1.73;;
9745;SDS011;4912;50.836;12.958;2023-12-20T14:07:11;4.65;;;1.80;;
9745;SDS011;4912;50.836;12.958;2023-12-20T14:09:43;4.85;;;1.60;;
9745;SDS011;4912;50.836;12.958;2023-12-20T14:12:14;6.90;;;1.65;;
9745;SDS011;4912;50.836;12.958;2023-12-20T14:14:50;4.38;;;1.50;;
9745;SDS011;4912;50.836;12.958;2023-12-20T14:17:23;6.50;;;1.95;;
9745;SDS011;4912;50.836;12.958;2023-12-20T14:20:00;6.43;;;1.80;;
9745;SDS011;4912;50.836;12.958;2023-12-20T14:22:37;5.30;;;2.10;;
9745;SDS011;4912;50.836;12.958;2023-12-20T14:25:11;4.28;;;1.40;;
9745;SDS011;4912;50.836;12.958;2023-12-20T14:27:46;4.05;;;1.30;;
9745;SDS011;4912;50.836;12.958;2023-12-20T14:30:17;4.70;;;1.38;;
9745;SDS011;4912;50.836;12.958;2023-12-20T14:32:49;5.40;;;1.80;;
9745;SDS011;4912;50.836;12.958;2023-12-20T14:35:20;5.70;;;1.83;;
9745;SDS011;4912;50.836;12.958;2023-12-20T14:37:54;4.88;;;1.50;;
9745;SDS011;4912;50.836;12.958;2023-12-20T14:40:26;4.32;;;1.73;;
9745;SDS011;4912;50.836;12.958;2023-12-20T14:43:02;5.82;;;1.40;;
9745;SDS011;4912;50.836;12.958;2023-12-20T14:45:39;6.00;;;1.90;;
9745;SDS011;4912;50.836;12.958;2023-12-20T14:48:15;4.47;;;1.55;;
9745;SDS011;4912;50.836;12.958;2023-12-20T14:51:16;4.10;;;1.65;;
9745;SDS011;4912;50.836;12.958;2023-12-20T14:57:32;4.35;;;1.45;;
9745;SDS011;4912;50.836;12.958;2023-12-20T15:00:09;5.20;;;1.63;;
9745;SDS011;4912;50.836;12.958;2023-12-20T15:02:47;4.03;;;1.40;;
9745;SDS011;4912;50.836;12.958;2023-12-20T15:05:21;4.50;;;1.88;;
9745;SDS011;4912;50.836;12.958;2023-12-20T15:07:56;5.85;;;1.67;;
9745;SDS011;4912;50.836;12.958;2023-12-20T15:10:43;9.05;;;3.03;;
9745;SDS011;4912;50.836;12.958;2023-12-20T15:13:17;6.43;;;2.35;;
9745;SDS011;4912;50.836;12.958;2023-12-20T15:15:58;3.53;;;2.00;;
9745;SDS011;4912;50.836;12.958;2023-12-20T15:18:51;5.13;;;2.00;;
9745;SDS011;4912;50.836;12.958;2023-12-20T15:21:28;5.63;;;2.00;;
9745;SDS011;4912;50.836;12.958;2023-12-20T15:24:17;4.15;;;1.77;;
9745;SDS011;4912;50.836;12.958;2023-12-20T15:27:07;5.30;;;1.80;;
9745;SDS011;4912;50.836;12.958;2023-12-20T15:29:51;5.63;;;1.80;;
9745;SDS011;4912;50.836;12.958;2023-12-20T15:32:28;5.68;;;2.00;;
9745;SDS011;4912;50.836;12.958;2023-12-20T15:35:33;4.63;;;2.25;;
9745;SDS011;4912;50.836;12.958;2023-12-20T15:38:15;4.18;;;1.80;;
9745;SDS011;4912;50.836;12.958;2023-12-20T15:40:46;3.92;;;1.90;;
9745;SDS011;4912;50.836;12.958;2023-12-20T15:43:39;5.53;;;2.20;;
9745;SDS011;4912;50.836;12.958;2023-12-20T15:46:27;4.30;;;1.83;;
9745;SDS011;4912;50.836;12.958;2023-12-20T15:49:04;7.32;;;1.63;;
9745;SDS011;4912;50.836;12.958;2023-12-20T15:51:40;4.30;;;1.77;;
9745;SDS011;4912;50.836;12.958;2023-12-20T15:54:22;5.18;;;1.45;;
9745;SDS011;4912;50.836;12.958;2023-12-20T15:56:58;3.58;;;1.77;;
9745;SDS011;4912;50.836;12.958;2023-12-20T15:59:56;6.95;;;2.00;;
9745;SDS011;4912;50.836;12.958;2023-12-20T16:02:41;4.43;;;1.60;;
9745;SDS011;4912;50.836;12.958;2023-12-20T16:05:58;5.20;;;1.75;;
9745;SDS011;4912;50.836;12.958;2023-12-20T16:09:10;4.53;;;1.48;;
9745;SDS011;4912;50.836;12.958;2023-12-20T16:11:54;4.63;;;2.10;;
9745;SDS011;4912;50.836;12.958;2023-12-20T16:14:37;5.93;;;2.00;;
9745;SDS011;4912;50.836;12.958;2023-12-20T16:17:34;6.55;;;1.90;;
9745;SDS011;4912;50.836;12.958;2023-12-20T16:20:11;4.45;;;1.77;;
9745;SDS011;4912;50.836;12.958;2023-12-20T16:23:10;3.17;;;1.48;;
9745;SDS011;4912;50.836;12.958;2023-12-20T16:26:11;6.40;;;1.70;;